sensor_id;sensor_type;location;lat;lon;timestamp;P1;durP1;ratioP1;P2;durP2;ratioP2
37937;SDS011;23763;48.130;11.602;2023-06-10T00:01:52;8.27;;;7.68;;
37937;SDS011;23763;48.130;11.602;2023-06-10T00:04:18;8.27;;;7.68;;
37937;SDS011;23763;48.130;11.602;2023-06-10T00:06:44;8.98;;;8.18;;
37937;SDS011;23763;48.130;11.602;2023-06-10T00:09:09;8.65;;;7.90;;
37937;SDS011;23763;48.130;11.602;2023-06-10T00:11:36;7.78;;;7.07;;
37937;SDS011;23763;48.130;11.602;2023-06-10T00:14:02;8.00;;;7.30;;
37937;SDS011;23763;48.130;11.602;2023-06-10T00:16:28;7.90;;;7.40;;
37937;SDS011;23763;48.130;11.602;2023-06-10T00:18:53;7.60;;;7.00;;
37937;SDS011;23763;48.130;11.602;2023-06-10T00:21:29;8.65;;;8.00;;
37937;SDS011;23763;48.130;11.602;2023-06-10T00:24:11;7.53;;;6.82;;
37937;SDS011;23763;48.130;11.602;2023-06-10T00:26:40;8.18;;;7.32;;
37937;SDS011;23763;48.130;11.602;2023-06-10T00:29:07;7.88;;;7.18;;
37937;SDS011;23763;48.130;11.602;2023-06-10T00:31:36;7.35;;;6.85;;
37937;SDS011;23763;48.130;11.602;2023-06-10T00:34:02;8.20;;;7.50;;
37937;SDS011;23763;48.130;11.602;2023-06-10T00:36:28;8.40;;;7.38;;
37937;SDS011;23763;48.130;11.602;2023-06-10T00:38:55;8.23;;;7.63;;
37937;SDS011;23763;48.130;11.602;2023-06-10T00:41:21;8.38;;;7.68;;
37937;SDS011;23763;48.130;11.602;2023-06-10T00:43:47;7.75;;;7.15;;
37937;SDS011;23763;48.130;11.602;2023-06-10T00:46:12;8.07;;;7.50;;
37937;SDS011;23763;48.130;11.602;2023-06-10T00:48:42;8.73;;;8.02;;
37937;SDS011;23763;48.130;11.602;2023-06-10T00:51:09;7.82;;;7.22;;
37937;SDS011;23763;48.130;11.602;2023-06-10T00:53:36;8.43;;;7.82;;
37937;SDS011;23763;48.130;11.602;2023-06-10T00:56:04;7.40;;;6.80;;
37937;SDS011;23763;48.130;11.602;2023-06-10T00:58:30;8.52;;;7.93;;
37937;SDS011;23763;48.130;11.602;2023-06-10T01:00:56;7.65;;;7.03;;
37937;SDS011;23763;48.130;11.602;2023-06-10T01:03:22;8.13;;;7.43;;
37937;SDS011;23763;48.130;11.602;2023-06-10T01:05:50;7.55;;;6.97;;
37937;SDS011;23763;48.130;11.602;2023-06-10T01:08:38;8.15;;;7.55;;
37937;SDS011;23763;48.130;11.602;2023-06-10T01:11:13;8.77;;;7.97;;
37937;SDS011;23763;48.130;11.602;2023-06-10T01:13:49;8.93;;;8.20;;
37937;SDS011;23763;48.130;11.602;2023-06-10T01:16:17;8.68;;;7.97;;
37937;SDS011;23763;48.130;11.602;2023-06-10T01:18:46;8.75;;;7.95;;
37937;SDS011;23763;48.130;11.602;2023-06-10T01:21:13;9.57;;;8.45;;
37937;SDS011;23763;48.130;11.602;2023-06-10T01:23:45;10.02;;;9.10;;
37937;SDS011;23763;48.130;11.602;2023-06-10T01:26:11;9.75;;;8.95;;
37937;SDS011;23763;48.130;11.602;2023-06-10T01:28:40;9.85;;;9.05;;
37937;SDS011;23763;48.130;11.602;2023-06-10T01:34:12;9.23;;;8.43;;
37937;SDS011;23763;48.130;11.602;2023-06-10T01:36:41;8.60;;;7.88;;
37937;SDS011;23763;48.130;11.602;2023-06-10T01:39:10;8.80;;;8.10;;
37937;SDS011;23763;48.130;11.602;2023-06-10T01:41:36;9.63;;;8.85;;
37937;SDS011;23763;48.130;11.602;2023-06-10T01:44:03;9.07;;;8.27;;
37937;SDS011;23763;48.130;11.602;2023-06-10T01:46:28;8.68;;;7.97;;
37937;SDS011;23763;48.130;11.602;2023-06-10T01:48:54;9.85;;;9.00;;
37937;SDS011;23763;48.130;11.602;2023-06-10T01:51:20;10.88;;;9.88;;
37937;SDS011;23763;48.130;11.602;2023-06-10T01:53:46;10.90;;;10.05;;
37937;SDS011;23763;48.130;11.602;2023-06-10T01:56:11;9.82;;;9.02;;
37937;SDS011;23763;48.130;11.602;2023-06-10T01:58:41;10.05;;;9.25;;
37937;SDS011;23763;48.130;11.602;2023-06-10T02:01:08;9.93;;;9.07;;
37937;SDS011;23763;48.130;11.602;2023-06-10T02:03:33;10.32;;;9.38;;
37937;SDS011;23763;48.130;11.602;2023-06-10T02:05:59;10.00;;;9.20;;
37937;SDS011;23763;48.130;11.602;2023-06-10T02:08:25;10.43;;;9.52;;
37937;SDS011;23763;48.130;11.602;2023-06-10T02:10:52;9.23;;;8.30;;
37937;SDS011;23763;48.130;11.602;2023-06-10T02:13:18;9.18;;;8.27;;
37937;SDS011;23763;48.130;11.602;2023-06-10T02:15:43;9.35;;;8.45;;
37937;SDS011;23763;48.130;11.602;2023-06-10T02:18:09;9.85;;;8.95;;
37937;SDS011;23763;48.130;11.602;2023-06-10T02:20:36;10.25;;;9.45;;
37937;SDS011;23763;48.130;11.602;2023-06-10T02:23:02;9.93;;;9.23;;
37937;SDS011;23763;48.130;11.602;2023-06-10T02:25:28;10.18;;;9.25;;
37937;SDS011;23763;48.130;11.602;2023-06-10T02:27:54;10.52;;;9.65;;
37937;SDS011;23763;48.130;11.602;2023-06-10T02:30:19;10.90;;;9.90;;
37937;SDS011;23763;48.130;11.602;2023-06-10T02:32:45;8.95;;;8.27;;
37937;SDS011;23763;48.130;11.602;2023-06-10T02:35:13;9.27;;;8.57;;
37937;SDS011;23763;48.130;11.602;2023-06-10T02:37:40;9.27;;;8.57;;
37937;SDS011;23763;48.130;11.602;2023-06-10T02:40:06;10.63;;;9.73;;
37937;SDS011;23763;48.130;11.602;2023-06-10T02:42:32;9.77;;;8.90;;
37937;SDS011;23763;48.130;11.602;2023-06-10T02:44:58;10.82;;;9.93;;
37937;SDS011;23763;48.130;11.602;2023-06-10T02:47:23;9.95;;;9.15;;
37937;SDS011;23763;48.130;11.602;2023-06-10T02:49:49;10.13;;;9.32;;
37937;SDS011;23763;48.130;11.602;2023-06-10T02:52:15;9.30;;;8.55;;
37937;SDS011;23763;48.130;11.602;2023-06-10T02:54:40;9.85;;;9.05;;
37937;SDS011;23763;48.130;11.602;2023-06-10T02:57:06;8.93;;;8.18;;
37937;SDS011;23763;48.130;11.602;2023-06-10T02:59:32;10.05;;;9.23;;
37937;SDS011;23763;48.130;11.602;2023-06-10T03:01:58;9.25;;;8.55;;
37937;SDS011;23763;48.130;11.602;2023-06-10T03:04:26;10.27;;;9.48;;
37937;SDS011;23763;48.130;11.602;2023-06-10T03:06:54;9.57;;;8.82;;
37937;SDS011;23763;48.130;11.602;2023-06-10T03:09:20;9.65;;;8.93;;
37937;SDS011;23763;48.130;11.602;2023-06-10T03:11:45;10.20;;;9.30;;
37937;SDS011;23763;48.130;11.602;2023-06-10T03:14:11;10.55;;;9.48;;
37937;SDS011;23763;48.130;11.602;2023-06-10T03:16:37;10.10;;;9.13;;
37937;SDS011;23763;48.130;11.602;2023-06-10T03:19:05;9.77;;;8.98;;
37937;SDS011;23763;48.130;11.602;2023-06-10T03:21:33;9.50;;;8.77;;
37937;SDS011;23763;48.130;11.602;2023-06-10T03:24:02;10.00;;;9.20;;
37937;SDS011;23763;48.130;11.602;2023-06-10T03:26:28;9.82;;;9.13;;
37937;SDS011;23763;48.130;11.602;2023-06-10T03:28:54;10.85;;;9.93;;
37937;SDS011;23763;48.130;11.602;2023-06-10T03:31:19;11.43;;;10.38;;
37937;SDS011;23763;48.130;11.602;2023-06-10T03:33:45;10.63;;;9.63;;
37937;SDS011;23763;48.130;11.602;2023-06-10T03:36:11;10.95;;;10.05;;
37937;SDS011;23763;48.130;11.602;2023-06-10T03:38:37;9.85;;;8.95;;
37937;SDS011;23763;48.130;11.602;2023-06-10T03:41:03;9.95;;;9.15;;
37937;SDS011;23763;48.130;11.602;2023-06-10T03:43:28;10.70;;;9.80;;
37937;SDS011;23763;48.130;11.602;2023-06-10T03:45:56;10.88;;;9.88;;
37937;SDS011;23763;48.130;11.602;2023-06-10T03:48:21;10.40;;;9.50;;
37937;SDS011;23763;48.130;11.602;2023-06-10T03:50:47;10.95;;;10.05;;
37937;SDS011;23763;48.130;11.602;2023-06-10T03:53:15;11.07;;;9.98;;
37937;SDS011;23763;48.130;11.602;2023-06-10T03:55:41;11.05;;;10.15;;
37937;SDS011;23763;48.130;11.602;2023-06-10T03:58:07;10.00;;;9.13;;
37937;SDS011;23763;48.130;11.602;2023-06-10T04:00:32;10.90;;;9.98;;
37937;SDS011;23763;48.130;11.602;2023-06-10T04:03:06;10.30;;;9.43;;
37937;SDS011;23763;48.130;11.602;2023-06-10T04:05:34;12.25;;;11.00;;
37937;SDS011;23763;48.130;11.602;2023-06-10T04:07:59;10.95;;;10.05;;
37937;SDS011;23763;48.130;11.602;2023-06-10T04:10:26;11.57;;;10.48;;
37937;SDS011;23763;48.130;11.602;2023-06-10T04:12:52;10.68;;;9.88;;
37937;SDS011;23763;48.130;11.602;2023-06-10T04:15:18;11.27;;;10.18;;
37937;SDS011;23763;48.130;11.602;2023-06-10T04:17:43;12.20;;;11.10;;
37937;SDS011;23763;48.130;11.602;2023-06-10T04:20:09;12.25;;;11.25;;
37937;SDS011;23763;48.130;11.602;2023-06-10T04:22:35;11.98;;;10.68;;
37937;SDS011;23763;48.130;11.602;2023-06-10T04:25:01;11.50;;;10.35;;
37937;SDS011;23763;48.130;11.602;2023-06-10T04:27:27;12.02;;;10.95;;
37937;SDS011;23763;48.130;11.602;2023-06-10T04:29:52;11.57;;;10.57;;
37937;SDS011;23763;48.130;11.602;2023-06-10T04:32:18;10.70;;;9.82;;
37937;SDS011;23763;48.130;11.602;2023-06-10T04:34:44;11.43;;;10.52;;
37937;SDS011;23763;48.130;11.602;2023-06-10T04:37:09;11.35;;;10.27;;
37937;SDS011;23763;48.130;11.602;2023-06-10T04:39:35;11.23;;;10.40;;
37937;SDS011;23763;48.130;11.602;2023-06-10T04:42:00;12.73;;;11.52;;
37937;SDS011;23763;48.130;11.602;2023-06-10T04:44:26;12.70;;;11.68;;
37937;SDS011;23763;48.130;11.602;2023-06-10T04:46:52;11.18;;;10.27;;
37937;SDS011;23763;48.130;11.602;2023-06-10T04:49:18;12.23;;;11.00;;
37937;SDS011;23763;48.130;11.602;2023-06-10T04:51:43;12.38;;;11.27;;
37937;SDS011;23763;48.130;11.602;2023-06-10T04:54:09;12.68;;;11.57;;
37937;SDS011;23763;48.130;11.602;2023-06-10T04:56:34;12.35;;;11.25;;
37937;SDS011;23763;48.130;11.602;2023-06-10T04:59:00;14.05;;;12.85;;
37937;SDS011;23763;48.130;11.602;2023-06-10T05:01:26;13.00;;;11.90;;
37937;SDS011;23763;48.130;11.602;2023-06-10T05:03:52;13.07;;;11.77;;
37937;SDS011;23763;48.130;11.602;2023-06-10T05:06:18;13.52;;;12.32;;
37937;SDS011;23763;48.130;11.602;2023-06-10T05:08:43;12.48;;;11.38;;
37937;SDS011;23763;48.130;11.602;2023-06-10T05:11:09;13.27;;;12.07;;
37937;SDS011;23763;48.130;11.602;2023-06-10T05:13:35;13.95;;;12.70;;
37937;SDS011;23763;48.130;11.602;2023-06-10T05:16:00;13.32;;;12.13;;
37937;SDS011;23763;48.130;11.602;2023-06-10T05:18:26;12.57;;;11.40;;
37937;SDS011;23763;48.130;11.602;2023-06-10T05:20:51;13.15;;;12.07;;
37937;SDS011;23763;48.130;11.602;2023-06-10T05:23:18;13.50;;;12.30;;
37937;SDS011;23763;48.130;11.602;2023-06-10T05:25:44;13.32;;;11.93;;
37937;SDS011;23763;48.130;11.602;2023-06-10T05:28:10;13.30;;;11.90;;
37937;SDS011;23763;48.130;11.602;2023-06-10T05:30:36;13.45;;;12.18;;
37937;SDS011;23763;48.130;11.602;2023-06-10T05:33:03;13.20;;;11.88;;
37937;SDS011;23763;48.130;11.602;2023-06-10T05:35:29;13.77;;;12.30;;
37937;SDS011;23763;48.130;11.602;2023-06-10T05:37:57;13.80;;;12.60;;
37937;SDS011;23763;48.130;11.602;2023-06-10T05:40:31;12.82;;;11.52;;
37937;SDS011;23763;48.130;11.602;2023-06-10T05:43:00;13.75;;;12.50;;
37937;SDS011;23763;48.130;11.602;2023-06-10T05:45:28;13.02;;;11.93;;
37937;SDS011;23763;48.130;11.602;2023-06-10T05:47:54;13.80;;;12.32;;
37937;SDS011;23763;48.130;11.602;2023-06-10T05:50:20;13.30;;;12.13;;
37937;SDS011;23763;48.130;11.602;2023-06-10T05:52:46;13.50;;;12.20;;
37937;SDS011;23763;48.130;11.602;2023-06-10T05:55:11;14.25;;;12.77;;
37937;SDS011;23763;48.130;11.602;2023-06-10T05:57:37;13.00;;;11.90;;
37937;SDS011;23763;48.130;11.602;2023-06-10T06:00:03;13.55;;;12.25;;
37937;SDS011;23763;48.130;11.602;2023-06-10T06:02:29;13.45;;;12.15;;
37937;SDS011;23763;48.130;11.602;2023-06-10T06:04:55;14.70;;;13.13;;
37937;SDS011;23763;48.130;11.602;2023-06-10T06:07:20;13.20;;;12.00;;
37937;SDS011;23763;48.130;11.602;2023-06-10T06:09:46;12.73;;;11.68;;
37937;SDS011;23763;48.130;11.602;2023-06-10T06:12:12;12.85;;;11.80;;
37937;SDS011;23763;48.130;11.602;2023-06-10T06:14:44;12.02;;;10.88;;
37937;SDS011;23763;48.130;11.602;2023-06-10T06:17:09;12.13;;;10.82;;
37937;SDS011;23763;48.130;11.602;2023-06-10T06:19:35;12.60;;;11.50;;
37937;SDS011;23763;48.130;11.602;2023-06-10T06:22:01;12.57;;;11.48;;
37937;SDS011;23763;48.130;11.602;2023-06-10T06:24:26;12.18;;;11.15;;
37937;SDS011;23763;48.130;11.602;2023-06-10T06:26:52;12.00;;;10.98;;
37937;SDS011;23763;48.130;11.602;2023-06-10T06:29:17;11.35;;;10.55;;
37937;SDS011;23763;48.130;11.602;2023-06-10T06:31:43;10.77;;;9.88;;
37937;SDS011;23763;48.130;11.602;2023-06-10T06:34:09;11.50;;;10.48;;
37937;SDS011;23763;48.130;11.602;2023-06-10T06:36:35;12.00;;;11.00;;
37937;SDS011;23763;48.130;11.602;2023-06-10T06:39:00;11.80;;;10.70;;
37937;SDS011;23763;48.130;11.602;2023-06-10T06:41:33;10.80;;;9.90;;
37937;SDS011;23763;48.130;11.602;2023-06-10T06:43:59;13.75;;;12.60;;
37937;SDS011;23763;48.130;11.602;2023-06-10T06:46:27;12.38;;;11.25;;
37937;SDS011;23763;48.130;11.602;2023-06-10T06:48:53;11.20;;;10.20;;
37937;SDS011;23763;48.130;11.602;2023-06-10T06:51:19;10.20;;;9.38;;
37937;SDS011;23763;48.130;11.602;2023-06-10T06:53:44;11.73;;;10.63;;
37937;SDS011;23763;48.130;11.602;2023-06-10T06:56:13;10.82;;;9.82;;
37937;SDS011;23763;48.130;11.602;2023-06-10T06:58:39;10.57;;;9.60;;
37937;SDS011;23763;48.130;11.602;2023-06-10T07:01:06;10.38;;;9.45;;
37937;SDS011;23763;48.130;11.602;2023-06-10T07:03:35;10.10;;;9.32;;
37937;SDS011;23763;48.130;11.602;2023-06-10T07:06:00;10.77;;;9.82;;
37937;SDS011;23763;48.130;11.602;2023-06-10T07:08:26;11.70;;;10.75;;
37937;SDS011;23763;48.130;11.602;2023-06-10T07:10:51;10.50;;;9.70;;
37937;SDS011;23763;48.130;11.602;2023-06-10T07:13:18;10.25;;;9.25;;
37937;SDS011;23763;48.130;11.602;2023-06-10T07:15:43;9.52;;;8.63;;
37937;SDS011;23763;48.130;11.602;2023-06-10T07:18:09;10.55;;;9.75;;
37937;SDS011;23763;48.130;11.602;2023-06-10T07:20:35;10.90;;;10.00;;
37937;SDS011;23763;48.130;11.602;2023-06-10T07:23:00;11.15;;;10.25;;
37937;SDS011;23763;48.130;11.602;2023-06-10T07:25:26;10.95;;;10.02;;
37937;SDS011;23763;48.130;11.602;2023-06-10T07:27:51;11.38;;;10.57;;
37937;SDS011;23763;48.130;11.602;2023-06-10T07:30:17;10.10;;;9.38;;
37937;SDS011;23763;48.130;11.602;2023-06-10T07:32:43;11.30;;;10.30;;
37937;SDS011;23763;48.130;11.602;2023-06-10T07:35:09;10.10;;;9.38;;
37937;SDS011;23763;48.130;11.602;2023-06-10T07:37:36;10.23;;;9.43;;
37937;SDS011;23763;48.130;11.602;2023-06-10T07:40:02;10.32;;;9.30;;
37937;SDS011;23763;48.130;11.602;2023-06-10T07:42:30;10.50;;;9.77;;
37937;SDS011;23763;48.130;11.602;2023-06-10T07:44:57;10.65;;;9.95;;
37937;SDS011;23763;48.130;11.602;2023-06-10T07:47:22;14.20;;;13.40;;
37937;SDS011;23763;48.130;11.602;2023-06-10T07:49:48;9.65;;;8.70;;
37937;SDS011;23763;48.130;11.602;2023-06-10T07:52:14;9.55;;;8.75;;
37937;SDS011;23763;48.130;11.602;2023-06-10T07:54:39;10.18;;;9.32;;
37937;SDS011;23763;48.130;11.602;2023-06-10T07:57:05;8.88;;;8.30;;
37937;SDS011;23763;48.130;11.602;2023-06-10T07:59:32;10.50;;;9.73;;
37937;SDS011;23763;48.130;11.602;2023-06-10T08:01:58;9.70;;;9.00;;
37937;SDS011;23763;48.130;11.602;2023-06-10T08:04:23;8.95;;;8.25;;
37937;SDS011;23763;48.130;11.602;2023-06-10T08:06:49;10.10;;;9.25;;
37937;SDS011;23763;48.130;11.602;2023-06-10T08:09:15;10.02;;;9.18;;
37937;SDS011;23763;48.130;11.602;2023-06-10T08:11:41;9.93;;;9.23;;
37937;SDS011;23763;48.130;11.602;2023-06-10T08:14:06;9.57;;;8.88;;
37937;SDS011;23763;48.130;11.602;2023-06-10T08:16:32;11.15;;;9.18;;
37937;SDS011;23763;48.130;11.602;2023-06-10T08:18:57;10.18;;;9.25;;
37937;SDS011;23763;48.130;11.602;2023-06-10T08:21:26;10.45;;;9.55;;
37937;SDS011;23763;48.130;11.602;2023-06-10T08:24:11;13.50;;;12.48;;
37937;SDS011;23763;48.130;11.602;2023-06-10T08:26:37;9.45;;;8.70;;
37937;SDS011;23763;48.130;11.602;2023-06-10T08:29:06;9.85;;;9.25;;
37937;SDS011;23763;48.130;11.602;2023-06-10T08:31:32;9.10;;;8.50;;
37937;SDS011;23763;48.130;11.602;2023-06-10T08:33:57;10.10;;;9.40;;
37937;SDS011;23763;48.130;11.602;2023-06-10T08:36:23;10.75;;;9.95;;
37937;SDS011;23763;48.130;11.602;2023-06-10T08:38:48;11.75;;;10.90;;
37937;SDS011;23763;48.130;11.602;2023-06-10T08:41:14;10.88;;;9.98;;
37937;SDS011;23763;48.130;11.602;2023-06-10T08:43:48;9.02;;;8.43;;
37937;SDS011;23763;48.130;11.602;2023-06-10T08:46:26;9.80;;;8.95;;
37937;SDS011;23763;48.130;11.602;2023-06-10T08:48:54;9.77;;;8.98;;
37937;SDS011;23763;48.130;11.602;2023-06-10T08:51:22;9.30;;;8.55;;
37937;SDS011;23763;48.130;11.602;2023-06-10T08:53:56;9.55;;;8.85;;
37937;SDS011;23763;48.130;11.602;2023-06-10T08:56:30;9.80;;;8.95;;
37937;SDS011;23763;48.130;11.602;2023-06-10T08:59:02;10.48;;;9.60;;
37937;SDS011;23763;48.130;11.602;2023-06-10T09:01:28;12.35;;;10.27;;
37937;SDS011;23763;48.130;11.602;2023-06-10T09:03:54;11.07;;;10.18;;
37937;SDS011;23763;48.130;11.602;2023-06-10T09:06:21;11.27;;;10.25;;
37937;SDS011;23763;48.130;11.602;2023-06-10T09:08:47;10.93;;;10.02;;
37937;SDS011;23763;48.130;11.602;2023-06-10T09:11:13;10.38;;;9.57;;
37937;SDS011;23763;48.130;11.602;2023-06-10T09:13:39;10.80;;;10.00;;
37937;SDS011;23763;48.130;11.602;2023-06-10T09:16:05;11.20;;;10.40;;
37937;SDS011;23763;48.130;11.602;2023-06-10T09:18:31;11.68;;;10.48;;
37937;SDS011;23763;48.130;11.602;2023-06-10T09:20:57;9.60;;;9.00;;
37937;SDS011;23763;48.130;11.602;2023-06-10T09:23:22;9.63;;;9.02;;
37937;SDS011;23763;48.130;11.602;2023-06-10T09:25:55;10.60;;;9.90;;
37937;SDS011;23763;48.130;11.602;2023-06-10T09:28:22;10.18;;;9.48;;
37937;SDS011;23763;48.130;11.602;2023-06-10T09:30:49;10.25;;;9.55;;
37937;SDS011;23763;48.130;11.602;2023-06-10T09:33:15;9.50;;;8.90;;
37937;SDS011;23763;48.130;11.602;2023-06-10T09:35:44;9.48;;;8.77;;
37937;SDS011;23763;48.130;11.602;2023-06-10T09:38:23;8.55;;;7.95;;
37937;SDS011;23763;48.130;11.602;2023-06-10T09:40:56;8.93;;;8.32;;
37937;SDS011;23763;48.130;11.602;2023-06-10T09:43:21;8.20;;;7.60;;
37937;SDS011;23763;48.130;11.602;2023-06-10T09:45:50;9.15;;;8.27;;
37937;SDS011;23763;48.130;11.602;2023-06-10T09:48:19;8.63;;;8.02;;
37937;SDS011;23763;48.130;11.602;2023-06-10T09:50:45;8.77;;;8.15;;
37937;SDS011;23763;48.130;11.602;2023-06-10T09:53:11;8.73;;;8.20;;
37937;SDS011;23763;48.130;11.602;2023-06-10T09:55:41;8.93;;;8.13;;
37937;SDS011;23763;48.130;11.602;2023-06-10T09:58:09;7.70;;;7.20;;
37937;SDS011;23763;48.130;11.602;2023-06-10T10:00:41;8.57;;;7.75;;
37937;SDS011;23763;48.130;11.602;2023-06-10T10:03:07;9.27;;;8.57;;
37937;SDS011;23763;48.130;11.602;2023-06-10T10:05:33;7.68;;;7.18;;
37937;SDS011;23763;48.130;11.602;2023-06-10T10:08:02;8.20;;;7.68;;
37937;SDS011;23763;48.130;11.602;2023-06-10T10:10:29;8.35;;;7.85;;
37937;SDS011;23763;48.130;11.602;2023-06-10T10:12:55;7.88;;;7.30;;
37937;SDS011;23763;48.130;11.602;2023-06-10T10:15:21;8.10;;;7.50;;
37937;SDS011;23763;48.130;11.602;2023-06-10T10:18:08;9.35;;;8.75;;
37937;SDS011;23763;48.130;11.602;2023-06-10T10:20:37;9.05;;;8.45;;
37937;SDS011;23763;48.130;11.602;2023-06-10T10:23:29;9.60;;;9.00;;
37937;SDS011;23763;48.130;11.602;2023-06-10T10:26:00;8.60;;;8.00;;
37937;SDS011;23763;48.130;11.602;2023-06-10T10:28:34;8.32;;;7.82;;
37937;SDS011;23763;48.130;11.602;2023-06-10T10:31:20;9.23;;;8.60;;
37937;SDS011;23763;48.130;11.602;2023-06-10T10:34:06;9.90;;;9.00;;
37937;SDS011;23763;48.130;11.602;2023-06-10T10:36:34;9.25;;;8.73;;
37937;SDS011;23763;48.130;11.602;2023-06-10T10:39:13;8.85;;;8.27;;
37937;SDS011;23763;48.130;11.602;2023-06-10T10:41:47;9.00;;;8.30;;
37937;SDS011;23763;48.130;11.602;2023-06-10T10:44:18;9.98;;;9.27;;
37937;SDS011;23763;48.130;11.602;2023-06-10T10:46:48;8.85;;;8.25;;
37937;SDS011;23763;48.130;11.602;2023-06-10T10:49:26;8.93;;;8.32;;
37937;SDS011;23763;48.130;11.602;2023-06-10T10:52:00;8.73;;;8.07;;
37937;SDS011;23763;48.130;11.602;2023-06-10T10:54:33;8.65;;;8.15;;
37937;SDS011;23763;48.130;11.602;2023-06-10T10:57:10;8.88;;;8.27;;
37937;SDS011;23763;48.130;11.602;2023-06-10T10:59:56;9.50;;;8.90;;
37937;SDS011;23763;48.130;11.602;2023-06-10T11:02:35;8.88;;;8.35;;
37937;SDS011;23763;48.130;11.602;2023-06-10T11:05:03;10.63;;;9.68;;
37937;SDS011;23763;48.130;11.602;2023-06-10T11:07:31;8.95;;;8.35;;
37937;SDS011;23763;48.130;11.602;2023-06-10T11:09:58;8.65;;;8.15;;
37937;SDS011;23763;48.130;11.602;2023-06-10T11:15:11;8.00;;;7.50;;
37937;SDS011;23763;48.130;11.602;2023-06-10T11:17:37;8.85;;;8.25;;
37937;SDS011;23763;48.130;11.602;2023-06-10T11:20:42;8.75;;;8.05;;
37937;SDS011;23763;48.130;11.602;2023-06-10T11:26:15;7.85;;;7.35;;
37937;SDS011;23763;48.130;11.602;2023-06-10T11:29:06;7.57;;;7.15;;
37937;SDS011;23763;48.130;11.602;2023-06-10T11:31:48;7.95;;;7.30;;
37937;SDS011;23763;48.130;11.602;2023-06-10T11:34:15;8.05;;;7.55;;
37937;SDS011;23763;48.130;11.602;2023-06-10T11:36:48;7.72;;;7.13;;
37937;SDS011;23763;48.130;11.602;2023-06-10T11:39:14;7.65;;;7.22;;
37937;SDS011;23763;48.130;11.602;2023-06-10T11:41:40;8.40;;;7.80;;
37937;SDS011;23763;48.130;11.602;2023-06-10T11:44:10;7.72;;;7.32;;
37937;SDS011;23763;48.130;11.602;2023-06-10T11:46:37;7.60;;;7.18;;
37937;SDS011;23763;48.130;11.602;2023-06-10T11:49:03;7.10;;;6.70;;
37937;SDS011;23763;48.130;11.602;2023-06-10T11:51:32;7.47;;;6.85;;
37937;SDS011;23763;48.130;11.602;2023-06-10T11:54:02;7.20;;;6.70;;
37937;SDS011;23763;48.130;11.602;2023-06-10T11:56:29;7.65;;;6.93;;
37937;SDS011;23763;48.130;11.602;2023-06-10T11:59:03;7.53;;;7.00;;
37937;SDS011;23763;48.130;11.602;2023-06-10T12:01:33;7.05;;;6.57;;
37937;SDS011;23763;48.130;11.602;2023-06-10T12:04:02;7.63;;;7.22;;
37937;SDS011;23763;48.130;11.602;2023-06-10T12:06:39;7.93;;;7.35;;
37937;SDS011;23763;48.130;11.602;2023-06-10T12:09:34;8.10;;;7.32;;
37937;SDS011;23763;48.130;11.602;2023-06-10T12:12:08;7.25;;;6.85;;
37937;SDS011;23763;48.130;11.602;2023-06-10T12:17:48;7.43;;;7.03;;
37937;SDS011;23763;48.130;11.602;2023-06-10T12:20:27;7.30;;;6.90;;
37937;SDS011;23763;48.130;11.602;2023-06-10T12:22:54;7.45;;;7.05;;
37937;SDS011;23763;48.130;11.602;2023-06-10T12:25:27;7.63;;;7.20;;
37937;SDS011;23763;48.130;11.602;2023-06-10T12:27:54;7.20;;;6.80;;
37937;SDS011;23763;48.130;11.602;2023-06-10T12:30:24;7.47;;;7.07;;
37937;SDS011;23763;48.130;11.602;2023-06-10T12:32:52;7.15;;;6.75;;
37937;SDS011;23763;48.130;11.602;2023-06-10T12:35:19;6.93;;;6.47;;
37937;SDS011;23763;48.130;11.602;2023-06-10T12:37:59;7.50;;;7.05;;
37937;SDS011;23763;48.130;11.602;2023-06-10T12:40:26;7.55;;;7.07;;
37937;SDS011;23763;48.130;11.602;2023-06-10T12:42:54;7.28;;;6.88;;
37937;SDS011;23763;48.130;11.602;2023-06-10T12:45:28;6.88;;;6.55;;
37937;SDS011;23763;48.130;11.602;2023-06-10T12:48:06;7.22;;;6.78;;
37937;SDS011;23763;48.130;11.602;2023-06-10T12:50:36;6.38;;;6.07;;
37937;SDS011;23763;48.130;11.602;2023-06-10T12:53:06;6.93;;;6.50;;
37937;SDS011;23763;48.130;11.602;2023-06-10T12:55:38;7.50;;;7.00;;
37937;SDS011;23763;48.130;11.602;2023-06-10T12:58:04;8.25;;;7.68;;
37937;SDS011;23763;48.130;11.602;2023-06-10T13:00:30;9.02;;;8.32;;
37937;SDS011;23763;48.130;11.602;2023-06-10T13:02:56;8.80;;;8.20;;
37937;SDS011;23763;48.130;11.602;2023-06-10T13:05:23;9.43;;;8.70;;
37937;SDS011;23763;48.130;11.602;2023-06-10T13:07:49;8.68;;;8.18;;
37937;SDS011;23763;48.130;11.602;2023-06-10T13:10:15;8.98;;;8.48;;
37937;SDS011;23763;48.130;11.602;2023-06-10T13:12:41;9.88;;;8.88;;
37937;SDS011;23763;48.130;11.602;2023-06-10T13:15:08;8.93;;;8.38;;
37937;SDS011;23763;48.130;11.602;2023-06-10T13:17:34;8.73;;;8.13;;
37937;SDS011;23763;48.130;11.602;2023-06-10T13:20:01;8.52;;;7.93;;
37937;SDS011;23763;48.130;11.602;2023-06-10T13:22:29;9.77;;;9.07;;
37937;SDS011;23763;48.130;11.602;2023-06-10T13:24:57;8.52;;;8.02;;
37937;SDS011;23763;48.130;11.602;2023-06-10T13:27:30;9.30;;;8.70;;
37937;SDS011;23763;48.130;11.602;2023-06-10T13:29:56;9.02;;;8.25;;
37937;SDS011;23763;48.130;11.602;2023-06-10T13:32:21;7.85;;;7.35;;
37937;SDS011;23763;48.130;11.602;2023-06-10T13:34:47;8.43;;;7.90;;
37937;SDS011;23763;48.130;11.602;2023-06-10T13:37:14;8.77;;;8.07;;
37937;SDS011;23763;48.130;11.602;2023-06-10T13:39:42;8.18;;;7.53;;
37937;SDS011;23763;48.130;11.602;2023-06-10T13:42:09;8.55;;;8.00;;
37937;SDS011;23763;48.130;11.602;2023-06-10T13:44:39;7.97;;;7.47;;
37937;SDS011;23763;48.130;11.602;2023-06-10T13:47:13;8.00;;;7.50;;
37937;SDS011;23763;48.130;11.602;2023-06-10T13:49:47;8.27;;;7.78;;
37937;SDS011;23763;48.130;11.602;2023-06-10T13:52:18;8.02;;;7.63;;
37937;SDS011;23763;48.130;11.602;2023-06-10T13:57:59;7.90;;;7.40;;
37937;SDS011;23763;48.130;11.602;2023-06-10T14:00:45;7.78;;;7.28;;
37937;SDS011;23763;48.130;11.602;2023-06-10T14:03:40;8.13;;;7.45;;
37937;SDS011;23763;48.130;11.602;2023-06-10T14:06:30;7.00;;;6.60;;
37937;SDS011;23763;48.130;11.602;2023-06-10T14:09:26;7.28;;;6.88;;
37937;SDS011;23763;48.130;11.602;2023-06-10T14:12:17;6.90;;;6.40;;
37937;SDS011;23763;48.130;11.602;2023-06-10T14:14:58;8.25;;;7.65;;
37937;SDS011;23763;48.130;11.602;2023-06-10T14:17:28;7.50;;;6.95;;
37937;SDS011;23763;48.130;11.602;2023-06-10T14:20:02;8.02;;;7.43;;
37937;SDS011;23763;48.130;11.602;2023-06-10T14:22:35;8.15;;;7.65;;
37937;SDS011;23763;48.130;11.602;2023-06-10T14:25:04;8.10;;;7.40;;
37937;SDS011;23763;48.130;11.602;2023-06-10T14:27:30;7.75;;;7.15;;
37937;SDS011;23763;48.130;11.602;2023-06-10T14:29:56;8.02;;;7.18;;
37937;SDS011;23763;48.130;11.602;2023-06-10T14:32:21;7.57;;;7.18;;
37937;SDS011;23763;48.130;11.602;2023-06-10T14:34:47;8.02;;;7.53;;
37937;SDS011;23763;48.130;11.602;2023-06-10T14:37:12;7.50;;;7.00;;
37937;SDS011;23763;48.130;11.602;2023-06-10T14:39:41;6.88;;;6.38;;
37937;SDS011;23763;48.130;11.602;2023-06-10T14:42:09;6.43;;;6.13;;
37937;SDS011;23763;48.130;11.602;2023-06-10T14:44:35;7.20;;;6.70;;
37937;SDS011;23763;48.130;11.602;2023-06-10T14:47:01;7.22;;;6.75;;
37937;SDS011;23763;48.130;11.602;2023-06-10T14:49:29;7.72;;;7.22;;